SAS86N EKCH-LIRQ
Flight info
| Callsign | SAS86N |
|---|---|
| Flight time | 1h 57m |
| Altitude | 37000 |
| Route | NEXEN T503 GIMRU DCT MICOS DCT NEBUN DCT EMBOX DCT EXITI DCT BERAS DCT LIKDA DCT BAKOR DCT GOXIN Q58 BIKTU |
| Aircraft | A20N/M-SDE2E3FGHIRWXY/LB1 |
Departure
| Time | 2026-04-26 16:16 |
|---|---|
| Airport | Copenhagen Kastrup Airport (EKCH) |
Arrival
| Time | 2026-04-26 18:13 |
|---|---|
| Airport | Florence Airport, Peretola (LIRQ) |
| Time | Latitude | Longitude | Altitude | Speed | Heading |
|---|---|---|---|---|---|
| 2026-04-26 15:21 | 55.62751 | 12.64477 | 17 ft | 0 kts | 101° |
| 2026-04-26 16:01 | 55.62753 | 12.64463 | 16 ft | 4 kts | 100° |
| 2026-04-26 16:01 | 55.62756 | 12.64417 | 16 ft | 4 kts | 81° |
| 2026-04-26 16:01 | 55.62746 | 12.64379 | 21 ft | 3 kts | 27° |
| 2026-04-26 16:02 | 55.62724 | 12.64361 | 18 ft | 4 kts | 25° |
| 2026-04-26 16:02 | 55.62700 | 12.64341 | 20 ft | 4 kts | 24° |
| 2026-04-26 16:02 | 55.62675 | 12.64322 | 19 ft | 4 kts | 23° |
| 2026-04-26 16:02 | 55.62658 | 12.64309 | 17 ft | 4 kts | 23° |
| 2026-04-26 16:03 | 55.62626 | 12.64283 | 19 ft | 4 kts | 30° |
| 2026-04-26 16:03 | 55.62605 | 12.64258 | 17 ft | 4 kts | 51° |
| 2026-04-26 16:03 | 55.62595 | 12.64218 | 18 ft | 4 kts | 101° |
| 2026-04-26 16:03 | 55.62606 | 12.64178 | 17 ft | 4 kts | 123° |
| 2026-04-26 16:04 | 55.62620 | 12.64138 | 20 ft | 4 kts | 123° |
| 2026-04-26 16:04 | 55.62630 | 12.64113 | 19 ft | 1 kts | 123° |
| 2026-04-26 16:07 | 55.62623 | 12.64132 | 19 ft | 5 kts | 123° |
| 2026-04-26 16:07 | 55.62586 | 12.64232 | 20 ft | 15 kts | 123° |
| 2026-04-26 16:08 | 55.62529 | 12.64385 | 16 ft | 16 kts | 123° |
| 2026-04-26 16:08 | 55.62470 | 12.64545 | 16 ft | 15 kts | 123° |
| 2026-04-26 16:08 | 55.62413 | 12.64703 | 19 ft | 1 kts | 123° |
| 2026-04-26 16:08 | 55.62408 | 12.64717 | 17 ft | 3 kts | 123° |
| 2026-04-26 16:09 | 55.62388 | 12.64762 | 16 ft | 7 kts | 138° |
| 2026-04-26 16:09 | 55.62315 | 12.64785 | 17 ft | 14 kts | 178° |
| 2026-04-26 16:09 | 55.62206 | 12.64769 | 17 ft | 17 kts | 213° |
| 2026-04-26 16:09 | 55.62105 | 12.64650 | 17 ft | 19 kts | 210° |
| 2026-04-26 16:10 | 55.61987 | 12.64524 | 17 ft | 20 kts | 205° |
| 2026-04-26 16:10 | 55.61844 | 12.64526 | 18 ft | 22 kts | 169° |
| 2026-04-26 16:10 | 55.61688 | 12.64565 | 16 ft | 23 kts | 193° |
| 2026-04-26 16:10 | 55.61549 | 12.64421 | 17 ft | 24 kts | 214° |
| 2026-04-26 16:11 | 55.61407 | 12.64259 | 16 ft | 25 kts | 213° |
| 2026-04-26 16:11 | 55.61295 | 12.64132 | 16 ft | 8 kts | 212° |
| 2026-04-26 16:11 | 55.61242 | 12.64070 | 16 ft | 11 kts | 213° |
| 2026-04-26 16:11 | 55.61172 | 12.63990 | 18 ft | 13 kts | 213° |
| 2026-04-26 16:12 | 55.61089 | 12.63893 | 16 ft | 15 kts | 213° |
| 2026-04-26 16:12 | 55.60993 | 12.63782 | 16 ft | 17 kts | 213° |
| 2026-04-26 16:12 | 55.60768 | 12.63526 | 18 ft | 21 kts | 213° |
| 2026-04-26 16:13 | 55.60643 | 12.63375 | 16 ft | 22 kts | 217° |
| 2026-04-26 16:13 | 55.60525 | 12.63192 | 16 ft | 23 kts | 221° |
| 2026-04-26 16:13 | 55.60417 | 12.63125 | 17 ft | 15 kts | 150° |
| 2026-04-26 16:13 | 55.60394 | 12.63164 | 17 ft | 0 kts | 131° |
| 2026-04-26 16:14 | 55.60367 | 12.63220 | 17 ft | 10 kts | 131° |
| 2026-04-26 16:15 | 55.60329 | 12.63314 | 19 ft | 4 kts | 84° |
| 2026-04-26 16:15 | 55.60361 | 12.63386 | 19 ft | 12 kts | 40° |
| 2026-04-26 16:15 | 55.60550 | 12.63674 | 17 ft | 74 kts | 41° |
| 2026-04-26 16:16 | 55.61959 | 12.65828 | 646 ft | 154 kts | 38° |
| 2026-04-26 16:16 | 55.62791 | 12.67122 | 1407 ft | 164 kts | 38° |
| 2026-04-26 16:16 | 55.63694 | 12.68494 | 2043 ft | 177 kts | 36° |
| 2026-04-26 16:16 | 55.64661 | 12.69951 | 2691 ft | 190 kts | 38° |
| 2026-04-26 16:17 | 55.65695 | 12.71580 | 3190 ft | 210 kts | 37° |
| 2026-04-26 16:17 | 55.66870 | 12.73360 | 3653 ft | 233 kts | 36° |
| 2026-04-26 16:17 | 55.68166 | 12.75292 | 4212 ft | 254 kts | 36° |
| 2026-04-26 16:17 | 55.69531 | 12.77424 | 4950 ft | 269 kts | 45° |
| 2026-04-26 16:18 | 55.70424 | 12.80385 | 5879 ft | 279 kts | 73° |
| 2026-04-26 16:18 | 55.69656 | 12.87078 | 7657 ft | 294 kts | 128° |
| 2026-04-26 16:19 | 55.66121 | 12.90645 | 9256 ft | 304 kts | 169° |
| 2026-04-26 16:19 | 55.64036 | 12.91474 | 10075 ft | 311 kts | 169° |
| 2026-04-26 16:19 | 55.59651 | 12.91416 | 10953 ft | 335 kts | 207° |
| 2026-04-26 16:20 | 55.57678 | 12.89168 | 11321 ft | 342 kts | 228° |
| 2026-04-26 16:20 | 55.54491 | 12.82973 | 13002 ft | 342 kts | 235° |
| 2026-04-26 16:20 | 55.52905 | 12.79801 | 13835 ft | 346 kts | 234° |
| 2026-04-26 16:21 | 55.51284 | 12.76639 | 14584 ft | 348 kts | 237° |
| 2026-04-26 16:21 | 55.49622 | 12.73484 | 15268 ft | 357 kts | 228° |
| 2026-04-26 16:21 | 55.47739 | 12.70596 | 15974 ft | 361 kts | 227° |
| 2026-04-26 16:21 | 55.45816 | 12.67718 | 16674 ft | 364 kts | 227° |
| 2026-04-26 16:22 | 55.43871 | 12.64817 | 17354 ft | 368 kts | 227° |
| 2026-04-26 16:22 | 55.41911 | 12.61888 | 18045 ft | 371 kts | 227° |
| 2026-04-26 16:22 | 55.39936 | 12.58929 | 18697 ft | 375 kts | 227° |
| 2026-04-26 16:22 | 55.37946 | 12.55948 | 19299 ft | 377 kts | 227° |
| 2026-04-26 16:23 | 55.35943 | 12.52946 | 19905 ft | 379 kts | 227° |
| 2026-04-26 16:23 | 55.33930 | 12.49933 | 20506 ft | 382 kts | 226° |
| 2026-04-26 16:23 | 55.31898 | 12.46895 | 21102 ft | 385 kts | 226° |
| 2026-04-26 16:23 | 55.29882 | 12.43886 | 21668 ft | 387 kts | 226° |
| 2026-04-26 16:24 | 55.27820 | 12.40813 | 22246 ft | 390 kts | 226° |
| 2026-04-26 16:24 | 55.25747 | 12.37726 | 22826 ft | 393 kts | 226° |
| 2026-04-26 16:24 | 55.23655 | 12.34617 | 23388 ft | 396 kts | 226° |
| 2026-04-26 16:24 | 55.21549 | 12.31490 | 23937 ft | 398 kts | 226° |
| 2026-04-26 16:25 | 55.19428 | 12.28346 | 24411 ft | 401 kts | 226° |
| 2026-04-26 16:25 | 55.17293 | 12.25187 | 24879 ft | 403 kts | 226° |
| 2026-04-26 16:25 | 55.15148 | 12.22017 | 25347 ft | 405 kts | 226° |
| 2026-04-26 16:25 | 55.12991 | 12.18834 | 25792 ft | 407 kts | 226° |
| 2026-04-26 16:26 | 55.10820 | 12.15635 | 26218 ft | 410 kts | 226° |
| 2026-04-26 16:26 | 55.09345 | 12.13463 | 26518 ft | 411 kts | 226° |
| 2026-04-26 16:26 | 55.06431 | 12.09179 | 26999 ft | 416 kts | 225° |
| 2026-04-26 16:26 | 55.04213 | 12.05924 | 27418 ft | 418 kts | 225° |
| 2026-04-26 16:27 | 55.01980 | 12.02654 | 27814 ft | 420 kts | 225° |
| 2026-04-26 16:27 | 54.99734 | 11.99369 | 28198 ft | 423 kts | 225° |
| 2026-04-26 16:27 | 54.97470 | 11.96062 | 28573 ft | 425 kts | 225° |
| 2026-04-26 16:27 | 54.95194 | 11.92742 | 28931 ft | 428 kts | 225° |
| 2026-04-26 16:28 | 54.92909 | 11.89414 | 29276 ft | 429 kts | 225° |
| 2026-04-26 16:28 | 54.90611 | 11.86075 | 29640 ft | 431 kts | 225° |
| 2026-04-26 16:28 | 54.88304 | 11.82725 | 29964 ft | 434 kts | 225° |
| 2026-04-26 16:28 | 54.85976 | 11.79350 | 30288 ft | 436 kts | 225° |
| 2026-04-26 16:29 | 54.83641 | 11.75970 | 30591 ft | 438 kts | 225° |
| 2026-04-26 16:29 | 54.81295 | 11.72581 | 30889 ft | 440 kts | 225° |
| 2026-04-26 16:29 | 54.78941 | 11.69185 | 31196 ft | 441 kts | 225° |
| 2026-04-26 16:29 | 54.76576 | 11.65779 | 31517 ft | 442 kts | 225° |
| 2026-04-26 16:30 | 54.74210 | 11.62378 | 31896 ft | 442 kts | 225° |
| 2026-04-26 16:30 | 54.71849 | 11.58990 | 32294 ft | 440 kts | 225° |
| 2026-04-26 16:30 | 54.69494 | 11.55615 | 32692 ft | 439 kts | 225° |
| 2026-04-26 16:30 | 54.67147 | 11.52257 | 33075 ft | 437 kts | 225° |
| 2026-04-26 16:31 | 54.64804 | 11.48909 | 33446 ft | 436 kts | 225° |
| 2026-04-26 16:31 | 54.62466 | 11.45572 | 33810 ft | 435 kts | 225° |
| 2026-04-26 16:31 | 54.60134 | 11.42248 | 34173 ft | 434 kts | 225° |
| 2026-04-26 16:31 | 54.57837 | 11.38980 | 34463 ft | 434 kts | 225° |
| 2026-04-26 16:32 | 54.55508 | 11.35671 | 34701 ft | 434 kts | 225° |
| 2026-04-26 16:32 | 54.53934 | 11.33437 | 34850 ft | 434 kts | 225° |
| 2026-04-26 16:32 | 54.50837 | 11.29044 | 35076 ft | 436 kts | 224° |
| 2026-04-26 16:32 | 54.48494 | 11.25732 | 35311 ft | 436 kts | 224° |
| 2026-04-26 16:33 | 54.46150 | 11.22424 | 35585 ft | 435 kts | 224° |
| 2026-04-26 16:33 | 54.43813 | 11.19131 | 35811 ft | 435 kts | 224° |
| 2026-04-26 16:33 | 54.41476 | 11.15841 | 36011 ft | 435 kts | 224° |
| 2026-04-26 16:33 | 54.39133 | 11.12548 | 36215 ft | 435 kts | 224° |
| 2026-04-26 16:34 | 54.36792 | 11.09261 | 36418 ft | 435 kts | 224° |
| 2026-04-26 16:34 | 54.34386 | 11.06099 | 36601 ft | 439 kts | 217° |
| 2026-04-26 16:34 | 54.31661 | 11.03641 | 36773 ft | 447 kts | 206° |
| 2026-04-26 16:34 | 54.28664 | 11.02075 | 36946 ft | 455 kts | 195° |
| 2026-04-26 16:35 | 54.25496 | 11.01519 | 37092 ft | 462 kts | 184° |
| 2026-04-26 16:35 | 54.22275 | 11.01947 | 37278 ft | 465 kts | 178° |
| 2026-04-26 16:35 | 54.15844 | 11.03113 | 37289 ft | 463 kts | 178° |
| 2026-04-26 16:36 | 54.09430 | 11.04236 | 37292 ft | 464 kts | 178° |
| 2026-04-26 16:36 | 54.03009 | 11.05352 | 37290 ft | 464 kts | 178° |
| 2026-04-26 16:37 | 53.96594 | 11.06465 | 37288 ft | 463 kts | 178° |
| 2026-04-26 16:37 | 53.91236 | 11.07393 | 37283 ft | 461 kts | 178° |
| 2026-04-26 16:38 | 53.83820 | 11.08672 | 37266 ft | 460 kts | 178° |
| 2026-04-26 16:38 | 53.77455 | 11.09766 | 37288 ft | 461 kts | 179° |
| 2026-04-26 16:39 | 53.71039 | 11.10863 | 37284 ft | 463 kts | 178° |
| 2026-04-26 16:39 | 53.64643 | 11.11958 | 37287 ft | 462 kts | 178° |
| 2026-04-26 16:40 | 53.58238 | 11.13049 | 37286 ft | 462 kts | 178° |
| 2026-04-26 16:40 | 53.51837 | 11.14137 | 37288 ft | 462 kts | 178° |
| 2026-04-26 16:41 | 53.45437 | 11.15221 | 37284 ft | 461 kts | 178° |
| 2026-04-26 16:41 | 53.39070 | 11.16296 | 37274 ft | 459 kts | 178° |
| 2026-04-26 16:42 | 53.32720 | 11.17365 | 37270 ft | 458 kts | 178° |
| 2026-04-26 16:42 | 53.26384 | 11.18428 | 37270 ft | 457 kts | 179° |
| 2026-04-26 16:43 | 53.20013 | 11.19491 | 37281 ft | 461 kts | 178° |
| 2026-04-26 16:43 | 53.13677 | 11.20549 | 37284 ft | 459 kts | 178° |
| 2026-04-26 16:44 | 53.07289 | 11.21611 | 37286 ft | 460 kts | 178° |
| 2026-04-26 16:44 | 53.00964 | 11.22530 | 37283 ft | 459 kts | 180° |
| 2026-04-26 16:45 | 52.94602 | 11.23344 | 37285 ft | 459 kts | 180° |
| 2026-04-26 16:45 | 52.88236 | 11.24179 | 37296 ft | 459 kts | 180° |
| 2026-04-26 16:46 | 52.81864 | 11.25025 | 37293 ft | 459 kts | 180° |
| 2026-04-26 16:46 | 52.75494 | 11.25871 | 37277 ft | 459 kts | 180° |
| 2026-04-26 16:47 | 52.69130 | 11.26713 | 37281 ft | 457 kts | 180° |
| 2026-04-26 16:47 | 52.62794 | 11.27549 | 37285 ft | 457 kts | 180° |
| 2026-04-26 16:48 | 52.56457 | 11.28382 | 37284 ft | 457 kts | 180° |
| 2026-04-26 16:48 | 52.50117 | 11.29214 | 37284 ft | 457 kts | 180° |
| 2026-04-26 16:49 | 52.43780 | 11.30042 | 37282 ft | 456 kts | 180° |
| 2026-04-26 16:49 | 52.37459 | 11.30866 | 37277 ft | 455 kts | 180° |
| 2026-04-26 16:50 | 52.31144 | 11.31687 | 37272 ft | 455 kts | 180° |
| 2026-04-26 16:50 | 52.25904 | 11.32367 | 37270 ft | 454 kts | 180° |
| 2026-04-26 16:51 | 52.19605 | 11.33181 | 37273 ft | 453 kts | 179° |
| 2026-04-26 16:51 | 52.13308 | 11.33992 | 37270 ft | 453 kts | 179° |
| 2026-04-26 16:52 | 52.08082 | 11.34664 | 37269 ft | 453 kts | 179° |
| 2026-04-26 16:52 | 52.00739 | 11.35105 | 37278 ft | 451 kts | 184° |
| 2026-04-26 16:53 | 51.94458 | 11.35241 | 37283 ft | 451 kts | 183° |
| 2026-04-26 16:53 | 51.88174 | 11.35390 | 37285 ft | 452 kts | 183° |
| 2026-04-26 16:54 | 51.81887 | 11.35542 | 37288 ft | 452 kts | 183° |
| 2026-04-26 16:54 | 51.75600 | 11.35693 | 37291 ft | 452 kts | 183° |
| 2026-04-26 16:55 | 51.69301 | 11.35842 | 37290 ft | 453 kts | 183° |
| 2026-04-26 16:55 | 51.63002 | 11.35993 | 37291 ft | 453 kts | 183° |
| 2026-04-26 16:56 | 51.53540 | 11.36219 | 37289 ft | 453 kts | 183° |
| 2026-04-26 16:57 | 51.47231 | 11.36368 | 37289 ft | 453 kts | 182° |
| 2026-04-26 16:57 | 51.37880 | 11.36590 | 37289 ft | 454 kts | 182° |
| 2026-04-26 16:58 | 51.32676 | 11.36713 | 37286 ft | 454 kts | 182° |
| 2026-04-26 16:59 | 51.22146 | 11.36960 | 37280 ft | 453 kts | 182° |
| 2026-04-26 17:00 | 51.09536 | 11.37256 | 37274 ft | 453 kts | 182° |
| 2026-04-26 17:00 | 51.00084 | 11.37475 | 37277 ft | 453 kts | 182° |
| 2026-04-26 17:01 | 50.93785 | 11.37622 | 37287 ft | 453 kts | 182° |
| 2026-04-26 17:01 | 50.87528 | 11.37768 | 37279 ft | 452 kts | 182° |
| 2026-04-26 17:02 | 50.81232 | 11.37913 | 37279 ft | 452 kts | 182° |
| 2026-04-26 17:02 | 50.74937 | 11.38056 | 37254 ft | 453 kts | 182° |
| 2026-04-26 17:03 | 50.68642 | 11.38201 | 37255 ft | 453 kts | 182° |
| 2026-04-26 17:03 | 50.62336 | 11.38346 | 37258 ft | 453 kts | 182° |
| 2026-04-26 17:04 | 50.56023 | 11.38490 | 37255 ft | 454 kts | 182° |
| 2026-04-26 17:04 | 50.49699 | 11.38634 | 37260 ft | 454 kts | 182° |
| 2026-04-26 17:05 | 50.43369 | 11.38777 | 37264 ft | 455 kts | 182° |
| 2026-04-26 17:05 | 50.37032 | 11.38921 | 37267 ft | 456 kts | 182° |
| 2026-04-26 17:06 | 50.30692 | 11.39064 | 37258 ft | 456 kts | 182° |
| 2026-04-26 17:06 | 50.24351 | 11.39207 | 37267 ft | 456 kts | 182° |
| 2026-04-26 17:07 | 50.18007 | 11.39350 | 37263 ft | 456 kts | 182° |
| 2026-04-26 17:07 | 50.11659 | 11.39492 | 37258 ft | 456 kts | 182° |
| 2026-04-26 17:08 | 50.05317 | 11.39635 | 37259 ft | 455 kts | 182° |
| 2026-04-26 17:08 | 49.98983 | 11.39777 | 37249 ft | 455 kts | 182° |
| 2026-04-26 17:09 | 49.93720 | 11.39894 | 37242 ft | 455 kts | 182° |
| 2026-04-26 17:09 | 49.86360 | 11.40058 | 37247 ft | 455 kts | 182° |
| 2026-04-26 17:10 | 49.80062 | 11.40200 | 37242 ft | 451 kts | 182° |
| 2026-04-26 17:10 | 49.73772 | 11.40338 | 37228 ft | 452 kts | 182° |
| 2026-04-26 17:11 | 49.67480 | 11.40476 | 37231 ft | 452 kts | 182° |
| 2026-04-26 17:11 | 49.61180 | 11.40613 | 37464 ft | 453 kts | 182° |
| 2026-04-26 17:12 | 49.54880 | 11.40925 | 37831 ft | 455 kts | 177° |
| 2026-04-26 17:12 | 49.51732 | 11.41462 | 37991 ft | 455 kts | 176° |
| 2026-04-26 17:13 | 49.45439 | 11.42566 | 38124 ft | 453 kts | 176° |
| 2026-04-26 17:13 | 49.42316 | 11.43107 | 37815 ft | 450 kts | 176° |
| 2026-04-26 17:13 | 49.36120 | 11.44169 | 37233 ft | 448 kts | 177° |
| 2026-04-26 17:14 | 49.33004 | 11.44697 | 37224 ft | 453 kts | 177° |
| 2026-04-26 17:14 | 49.23585 | 11.46297 | 37229 ft | 453 kts | 176° |
| 2026-04-26 17:15 | 49.14180 | 11.47889 | 37220 ft | 454 kts | 176° |
| 2026-04-26 17:16 | 49.07901 | 11.48948 | 37220 ft | 453 kts | 176° |
| 2026-04-26 17:16 | 49.01630 | 11.50004 | 37215 ft | 453 kts | 176° |
| 2026-04-26 17:17 | 48.95359 | 11.51057 | 37220 ft | 453 kts | 177° |
| 2026-04-26 17:17 | 48.89089 | 11.52106 | 37213 ft | 453 kts | 177° |
| 2026-04-26 17:18 | 48.82825 | 11.53152 | 37212 ft | 453 kts | 177° |
| 2026-04-26 17:18 | 48.76555 | 11.54197 | 37213 ft | 453 kts | 177° |
| 2026-04-26 17:19 | 48.67159 | 11.55758 | 37219 ft | 453 kts | 177° |
| 2026-04-26 17:19 | 48.60898 | 11.56794 | 37211 ft | 453 kts | 177° |
| 2026-04-26 17:20 | 48.56711 | 11.57486 | 37210 ft | 453 kts | 177° |
| 2026-04-26 17:20 | 48.48377 | 11.58859 | 37199 ft | 452 kts | 177° |
| 2026-04-26 17:21 | 48.42119 | 11.59887 | 37210 ft | 452 kts | 177° |
| 2026-04-26 17:21 | 48.35863 | 11.60913 | 37211 ft | 452 kts | 177° |
| 2026-04-26 17:22 | 48.29609 | 11.61935 | 37210 ft | 452 kts | 177° |
| 2026-04-26 17:22 | 48.23398 | 11.62948 | 37210 ft | 452 kts | 177° |
| 2026-04-26 17:23 | 48.17149 | 11.63967 | 37213 ft | 452 kts | 177° |
| 2026-04-26 17:23 | 48.10905 | 11.64980 | 37204 ft | 451 kts | 177° |
| 2026-04-26 17:24 | 48.04663 | 11.65990 | 37189 ft | 451 kts | 177° |
| 2026-04-26 17:24 | 47.98425 | 11.66998 | 37193 ft | 451 kts | 177° |
| 2026-04-26 17:25 | 47.92188 | 11.68003 | 37185 ft | 451 kts | 177° |
| 2026-04-26 17:25 | 47.85958 | 11.69004 | 37174 ft | 450 kts | 177° |
| 2026-04-26 17:26 | 47.79727 | 11.70003 | 37173 ft | 450 kts | 177° |
| 2026-04-26 17:26 | 47.73497 | 11.71000 | 37170 ft | 450 kts | 177° |
| 2026-04-26 17:27 | 47.67272 | 11.71993 | 37162 ft | 450 kts | 177° |
| 2026-04-26 17:27 | 47.61043 | 11.72986 | 37153 ft | 450 kts | 177° |
| 2026-04-26 17:28 | 47.54807 | 11.73973 | 37165 ft | 451 kts | 177° |
| 2026-04-26 17:28 | 47.48583 | 11.74961 | 37155 ft | 450 kts | 177° |
| 2026-04-26 17:29 | 47.44420 | 11.75624 | 37153 ft | 449 kts | 177° |
| 2026-04-26 17:29 | 47.36149 | 11.76832 | 37156 ft | 448 kts | 181° |
| 2026-04-26 17:30 | 47.29944 | 11.76656 | 37145 ft | 446 kts | 186° |
| 2026-04-26 17:30 | 47.23756 | 11.76293 | 37137 ft | 445 kts | 185° |
| 2026-04-26 17:31 | 47.17583 | 11.75950 | 37125 ft | 443 kts | 185° |
| 2026-04-26 17:31 | 47.11442 | 11.75612 | 37123 ft | 443 kts | 185° |
| 2026-04-26 17:32 | 47.05281 | 11.75276 | 37134 ft | 441 kts | 185° |
| 2026-04-26 17:32 | 46.99105 | 11.74943 | 37110 ft | 446 kts | 185° |
| 2026-04-26 17:33 | 46.92926 | 11.74611 | 37099 ft | 443 kts | 185° |
| 2026-04-26 17:34 | 46.83651 | 11.74099 | 37095 ft | 444 kts | 185° |
| 2026-04-26 17:34 | 46.77474 | 11.73762 | 37070 ft | 444 kts | 185° |
| 2026-04-26 17:35 | 46.72346 | 11.73483 | 37086 ft | 444 kts | 185° |
| 2026-04-26 17:35 | 46.66162 | 11.73147 | 37079 ft | 445 kts | 185° |
| 2026-04-26 17:36 | 46.58975 | 11.72749 | 37073 ft | 443 kts | 186° |
| 2026-04-26 17:36 | 46.53810 | 11.72372 | 37070 ft | 444 kts | 186° |
| 2026-04-26 17:37 | 46.47645 | 11.71898 | 37061 ft | 443 kts | 186° |
| 2026-04-26 17:37 | 46.41467 | 11.71445 | 37071 ft | 444 kts | 186° |
| 2026-04-26 17:38 | 46.32216 | 11.70774 | 37103 ft | 444 kts | 186° |
| 2026-04-26 17:38 | 46.26034 | 11.70326 | 37110 ft | 445 kts | 186° |
| 2026-04-26 17:39 | 46.19841 | 11.69879 | 37115 ft | 445 kts | 186° |
| 2026-04-26 17:39 | 46.13661 | 11.69435 | 37109 ft | 444 kts | 186° |
| 2026-04-26 17:40 | 46.08537 | 11.69067 | 37108 ft | 444 kts | 186° |
| 2026-04-26 17:40 | 46.01354 | 11.68552 | 37110 ft | 444 kts | 186° |
| 2026-04-26 17:41 | 45.95180 | 11.68111 | 37112 ft | 444 kts | 186° |
| 2026-04-26 17:41 | 45.89006 | 11.67670 | 37105 ft | 444 kts | 186° |
| 2026-04-26 17:42 | 45.82842 | 11.67230 | 37104 ft | 443 kts | 186° |
| 2026-04-26 17:42 | 45.76689 | 11.66793 | 37086 ft | 442 kts | 186° |
| 2026-04-26 17:43 | 45.70549 | 11.66358 | 37076 ft | 442 kts | 186° |
| 2026-04-26 17:43 | 45.64415 | 11.65925 | 37060 ft | 441 kts | 186° |
| 2026-04-26 17:44 | 45.58284 | 11.65492 | 37061 ft | 441 kts | 186° |
| 2026-04-26 17:44 | 45.52143 | 11.65059 | 37054 ft | 441 kts | 186° |
| 2026-04-26 17:45 | 45.46007 | 11.64628 | 37051 ft | 442 kts | 186° |
| 2026-04-26 17:45 | 45.39861 | 11.64197 | 37056 ft | 443 kts | 186° |
| 2026-04-26 17:46 | 45.33706 | 11.63766 | 37056 ft | 443 kts | 186° |
| 2026-04-26 17:46 | 45.27572 | 11.63338 | 37067 ft | 444 kts | 186° |
| 2026-04-26 17:47 | 45.22397 | 11.62977 | 37060 ft | 445 kts | 186° |
| 2026-04-26 17:47 | 45.15191 | 11.62476 | 36852 ft | 447 kts | 186° |
| 2026-04-26 17:48 | 45.12078 | 11.62260 | 36328 ft | 449 kts | 186° |
| 2026-04-26 17:48 | 45.08940 | 11.62042 | 35493 ft | 454 kts | 186° |
| 2026-04-26 17:48 | 45.05766 | 11.61821 | 34491 ft | 461 kts | 186° |
| 2026-04-26 17:48 | 45.02529 | 11.61595 | 33464 ft | 468 kts | 186° |
| 2026-04-26 17:49 | 44.99287 | 11.61372 | 32737 ft | 465 kts | 186° |
| 2026-04-26 17:49 | 44.96059 | 11.61150 | 31950 ft | 465 kts | 185° |
| 2026-04-26 17:49 | 44.92827 | 11.60927 | 31130 ft | 465 kts | 185° |
| 2026-04-26 17:49 | 44.89596 | 11.60705 | 30298 ft | 466 kts | 185° |
| 2026-04-26 17:50 | 44.86372 | 11.60483 | 29692 ft | 460 kts | 185° |
| 2026-04-26 17:50 | 44.83205 | 11.60267 | 29183 ft | 452 kts | 185° |
| 2026-04-26 17:50 | 44.80086 | 11.60055 | 28615 ft | 446 kts | 185° |
| 2026-04-26 17:50 | 44.77010 | 11.59844 | 28052 ft | 440 kts | 185° |
| 2026-04-26 17:51 | 44.73969 | 11.59635 | 27503 ft | 434 kts | 185° |
| 2026-04-26 17:51 | 44.70966 | 11.59429 | 26950 ft | 430 kts | 185° |
| 2026-04-26 17:51 | 44.67995 | 11.59226 | 26409 ft | 425 kts | 185° |
| 2026-04-26 17:51 | 44.65054 | 11.59025 | 25867 ft | 421 kts | 185° |
| 2026-04-26 17:52 | 44.62144 | 11.58826 | 25329 ft | 417 kts | 185° |
| 2026-04-26 17:52 | 44.59253 | 11.58629 | 24786 ft | 414 kts | 184° |
| 2026-04-26 17:52 | 44.56390 | 11.58433 | 24244 ft | 411 kts | 184° |
| 2026-04-26 17:52 | 44.53539 | 11.58239 | 23714 ft | 408 kts | 184° |
| 2026-04-26 17:53 | 44.50711 | 11.58046 | 23138 ft | 405 kts | 184° |
| 2026-04-26 17:53 | 44.47914 | 11.57856 | 22609 ft | 400 kts | 184° |
| 2026-04-26 17:53 | 44.45148 | 11.57669 | 22082 ft | 396 kts | 184° |
| 2026-04-26 17:54 | 44.39705 | 11.57300 | 21043 ft | 388 kts | 184° |
| 2026-04-26 17:54 | 44.37020 | 11.57118 | 20531 ft | 385 kts | 184° |
| 2026-04-26 17:54 | 44.34354 | 11.56937 | 20021 ft | 382 kts | 184° |
| 2026-04-26 17:54 | 44.31704 | 11.56757 | 19505 ft | 380 kts | 184° |
| 2026-04-26 17:55 | 44.29070 | 11.56580 | 18930 ft | 380 kts | 184° |
| 2026-04-26 17:55 | 44.26441 | 11.56402 | 18483 ft | 376 kts | 184° |
| 2026-04-26 17:55 | 44.23834 | 11.56184 | 17935 ft | 374 kts | 185° |
| 2026-04-26 17:55 | 44.21244 | 11.55928 | 17423 ft | 371 kts | 185° |
| 2026-04-26 17:56 | 44.18681 | 11.55670 | 16915 ft | 368 kts | 185° |
| 2026-04-26 17:56 | 44.13613 | 11.55173 | 15907 ft | 362 kts | 184° |
| 2026-04-26 17:57 | 44.08620 | 11.54699 | 14914 ft | 357 kts | 184° |
| 2026-04-26 17:57 | 44.06146 | 11.54465 | 14414 ft | 355 kts | 184° |
| 2026-04-26 17:57 | 44.03688 | 11.54233 | 13917 ft | 353 kts | 184° |
| 2026-04-26 17:57 | 44.01261 | 11.53801 | 13404 ft | 351 kts | 193° |
| 2026-04-26 17:58 | 43.94863 | 11.49313 | 11961 ft | 341 kts | 211° |
| 2026-04-26 17:59 | 43.90865 | 11.45881 | 11220 ft | 338 kts | 211° |
| 2026-04-26 17:59 | 43.88888 | 11.44191 | 11132 ft | 326 kts | 211° |
| 2026-04-26 17:59 | 43.87007 | 11.42585 | 11132 ft | 310 kts | 211° |
| 2026-04-26 17:59 | 43.85247 | 11.41082 | 11135 ft | 293 kts | 211° |
| 2026-04-26 18:00 | 43.83536 | 11.39624 | 11135 ft | 276 kts | 211° |
| 2026-04-26 18:00 | 43.81964 | 11.38286 | 11121 ft | 261 kts | 211° |
| 2026-04-26 18:00 | 43.80445 | 11.36994 | 10961 ft | 253 kts | 211° |
| 2026-04-26 18:00 | 43.78948 | 11.35720 | 10632 ft | 252 kts | 211° |
| 2026-04-26 18:01 | 43.77460 | 11.34455 | 10329 ft | 250 kts | 211° |
| 2026-04-26 18:01 | 43.75972 | 11.33157 | 9830 ft | 257 kts | 216° |
| 2026-04-26 18:01 | 43.74638 | 11.31462 | 9259 ft | 264 kts | 229° |
| 2026-04-26 18:01 | 43.73393 | 11.29485 | 8876 ft | 285 kts | 228° |
| 2026-04-26 18:02 | 43.72063 | 11.27407 | 8463 ft | 289 kts | 228° |
| 2026-04-26 18:02 | 43.71184 | 11.26044 | 8302 ft | 284 kts | 228° |
| 2026-04-26 18:02 | 43.69438 | 11.23345 | 7809 ft | 280 kts | 228° |
| 2026-04-26 18:02 | 43.68154 | 11.21364 | 7596 ft | 271 kts | 227° |
| 2026-04-26 18:03 | 43.66936 | 11.19487 | 7440 ft | 254 kts | 227° |
| 2026-04-26 18:03 | 43.65798 | 11.17733 | 7298 ft | 237 kts | 227° |
| 2026-04-26 18:03 | 43.64711 | 11.16058 | 6999 ft | 234 kts | 227° |
| 2026-04-26 18:03 | 43.63629 | 11.14396 | 6729 ft | 232 kts | 227° |
| 2026-04-26 18:04 | 43.62551 | 11.12749 | 6458 ft | 230 kts | 227° |
| 2026-04-26 18:04 | 43.61477 | 11.11114 | 6149 ft | 229 kts | 227° |
| 2026-04-26 18:04 | 43.60413 | 11.09497 | 5894 ft | 227 kts | 227° |
| 2026-04-26 18:05 | 43.58318 | 11.06309 | 5317 ft | 226 kts | 228° |
| 2026-04-26 18:05 | 43.57278 | 11.04715 | 5120 ft | 221 kts | 229° |
| 2026-04-26 18:05 | 43.56252 | 11.03135 | 4991 ft | 223 kts | 229° |
| 2026-04-26 18:05 | 43.55211 | 11.01533 | 4879 ft | 226 kts | 229° |
| 2026-04-26 18:06 | 43.54436 | 10.99679 | 4597 ft | 225 kts | 257° |
| 2026-04-26 18:06 | 43.54493 | 10.97558 | 4271 ft | 224 kts | 290° |
| 2026-04-26 18:06 | 43.55378 | 10.95842 | 4087 ft | 223 kts | 318° |
| 2026-04-26 18:06 | 43.56567 | 10.94446 | 4036 ft | 224 kts | 317° |
| 2026-04-26 18:07 | 43.57742 | 10.93046 | 4039 ft | 225 kts | 317° |
| 2026-04-26 18:07 | 43.58930 | 10.91636 | 4034 ft | 226 kts | 323° |
| 2026-04-26 18:07 | 43.60390 | 10.90945 | 4045 ft | 227 kts | 0° |
| 2026-04-26 18:07 | 43.61446 | 10.91271 | 3996 ft | 236 kts | 24° |
| 2026-04-26 18:08 | 43.63175 | 10.93086 | 3883 ft | 235 kts | 45° |
| 2026-04-26 18:08 | 43.64261 | 10.94751 | 3715 ft | 232 kts | 48° |
| 2026-04-26 18:08 | 43.65322 | 10.96397 | 3549 ft | 229 kts | 47° |
| 2026-04-26 18:08 | 43.66406 | 10.98058 | 3453 ft | 234 kts | 47° |
| 2026-04-26 18:09 | 43.67474 | 10.99696 | 3348 ft | 224 kts | 47° |
| 2026-04-26 18:09 | 43.68492 | 11.01259 | 3235 ft | 214 kts | 47° |
| 2026-04-26 18:09 | 43.69464 | 11.02752 | 3123 ft | 204 kts | 47° |
| 2026-04-26 18:09 | 43.70422 | 11.04221 | 3015 ft | 210 kts | 47° |
| 2026-04-26 18:10 | 43.71404 | 11.05730 | 2763 ft | 210 kts | 47° |
| 2026-04-26 18:10 | 43.72376 | 11.07225 | 2493 ft | 208 kts | 47° |
| 2026-04-26 18:10 | 43.73342 | 11.08709 | 2221 ft | 207 kts | 47° |
| 2026-04-26 18:10 | 43.74303 | 11.10188 | 1984 ft | 205 kts | 46° |
| 2026-04-26 18:11 | 43.75236 | 11.11624 | 1696 ft | 195 kts | 47° |
| 2026-04-26 18:11 | 43.76095 | 11.12954 | 1434 ft | 174 kts | 46° |
| 2026-04-26 18:11 | 43.76857 | 11.14119 | 1214 ft | 155 kts | 46° |
| 2026-04-26 18:11 | 43.77546 | 11.15178 | 1005 ft | 143 kts | 47° |
| 2026-04-26 18:12 | 43.78211 | 11.16204 | 810 ft | 143 kts | 48° |
| 2026-04-26 18:12 | 43.78883 | 11.17227 | 644 ft | 143 kts | 48° |
| 2026-04-26 18:12 | 43.79534 | 11.18237 | 442 ft | 138 kts | 47° |
| 2026-04-26 18:12 | 43.80174 | 11.19225 | 278 ft | 142 kts | 47° |
| 2026-04-26 18:13 | 43.80834 | 11.20247 | 132 ft | 135 kts | 47° |
| 2026-04-26 18:13 | 43.81285 | 11.20935 | 133 ft | 56 kts | 48° |
| 2026-04-26 18:13 | 43.81387 | 11.21093 | 132 ft | 9 kts | 48° |
| 2026-04-26 18:13 | 43.81422 | 11.21148 | 133 ft | 13 kts | 48° |
| 2026-04-26 18:14 | 43.81480 | 11.21237 | 131 ft | 4 kts | 48° |
| 2026-04-26 18:14 | 43.81502 | 11.21305 | 134 ft | 10 kts | 96° |
| 2026-04-26 18:14 | 43.81452 | 11.21361 | 139 ft | 9 kts | 160° |
| 2026-04-26 18:14 | 43.81399 | 11.21381 | 143 ft | 6 kts | 180° |
| 2026-04-26 18:15 | 43.81359 | 11.21367 | 145 ft | 7 kts | 210° |
| 2026-04-26 18:15 | 43.81305 | 11.21291 | 145 ft | 15 kts | 228° |
| 2026-04-26 18:15 | 43.81264 | 11.21220 | 142 ft | 10 kts | 242° |
| 2026-04-26 18:15 | 43.81262 | 11.21083 | 137 ft | 18 kts | 274° |
| 2026-04-26 18:16 | 43.81242 | 11.20891 | 132 ft | 22 kts | 218° |
| 2026-04-26 18:16 | 43.81061 | 11.20590 | 127 ft | 19 kts | 230° |
| 2026-04-26 18:16 | 43.80976 | 11.20464 | 125 ft | 16 kts | 226° |
| 2026-04-26 18:17 | 43.80909 | 11.20361 | 127 ft | 13 kts | 229° |
| 2026-04-26 18:17 | 43.80849 | 11.20268 | 129 ft | 13 kts | 227° |
| 2026-04-26 18:17 | 43.80789 | 11.20174 | 132 ft | 13 kts | 227° |
| 2026-04-26 18:17 | 43.80714 | 11.20064 | 132 ft | 18 kts | 221° |
| 2026-04-26 18:18 | 43.80604 | 11.20008 | 132 ft | 15 kts | 194° |
| 2026-04-26 18:18 | 43.80512 | 11.19978 | 133 ft | 12 kts | 193° |
| 2026-04-26 18:18 | 43.80431 | 11.19949 | 131 ft | 12 kts | 196° |
| 2026-04-26 18:18 | 43.80365 | 11.19955 | 127 ft | 10 kts | 140° |
| 2026-04-26 18:19 | 43.80326 | 11.20015 | 124 ft | 8 kts | 149° |
| 2026-04-26 18:19 | 43.80311 | 11.20023 | 122 ft | 2 kts | 156° |
| 2026-04-26 18:19 | 43.80304 | 11.20027 | 126 ft | 1 kts | 159° |
| 2026-04-26 18:19 | 43.80299 | 11.20030 | 126 ft | 1 kts | 158° |
| 2026-04-26 18:20 | 43.80297 | 11.20031 | 126 ft | 0 kts | 158° |